sensor_id;sensor_type;location;lat;lon;timestamp;temperature;humidity
8313;DHT22;4194;43.408;24.626;2023-02-01T00:01:53;3.20;99.90
8313;DHT22;4194;43.408;24.626;2023-02-01T00:04:19;4.30;99.90
8313;DHT22;4194;43.408;24.626;2023-02-01T00:09:11;3.80;99.90
8313;DHT22;4194;43.408;24.626;2023-02-01T00:11:37;1.40;99.90
8313;DHT22;4194;43.408;24.626;2023-02-01T00:14:03;1.40;99.90
8313;DHT22;4194;43.408;24.626;2023-02-01T00:16:29;2.30;99.90
8313;DHT22;4194;43.408;24.626;2023-02-01T00:19:01;2.60;99.90
8313;DHT22;4194;43.408;24.626;2023-02-01T00:21:28;3.30;99.90
8313;DHT22;4194;43.408;24.626;2023-02-01T00:23:54;2.10;99.90
8313;DHT22;4194;43.408;24.626;2023-02-01T00:26:27;1.90;99.90
8313;DHT22;4194;43.408;24.626;2023-02-01T00:28:55;2.50;99.90
8313;DHT22;4194;43.408;24.626;2023-02-01T00:31:21;2.20;99.90
8313;DHT22;4194;43.408;24.626;2023-02-01T00:33:48;4.20;99.90
8313;DHT22;4194;43.408;24.626;2023-02-01T00:38:39;2.80;99.90
8313;DHT22;4194;43.408;24.626;2023-02-01T00:41:12;2.60;99.90
8313;DHT22;4194;43.408;24.626;2023-02-01T00:46:05;0.90;99.90
8313;DHT22;4194;43.408;24.626;2023-02-01T00:48:31;1.50;99.90
8313;DHT22;4194;43.408;24.626;2023-02-01T00:51:01;3.40;99.90
8313;DHT22;4194;43.408;24.626;2023-02-01T00:53:28;2.70;99.90
8313;DHT22;4194;43.408;24.626;2023-02-01T01:03:12;2.60;99.90
8313;DHT22;4194;43.408;24.626;2023-02-01T01:08:14;2.60;99.90
8313;DHT22;4194;43.408;24.626;2023-02-01T01:10:41;1.50;99.90
8313;DHT22;4194;43.408;24.626;2023-02-01T01:13:07;2.50;99.90
8313;DHT22;4194;43.408;24.626;2023-02-01T01:15:37;2.10;99.90
8313;DHT22;4194;43.408;24.626;2023-02-01T01:18:03;2.50;99.90
8313;DHT22;4194;43.408;24.626;2023-02-01T01:20:29;2.50;99.90
8313;DHT22;4194;43.408;24.626;2023-02-01T01:22:55;2.40;99.90
8313;DHT22;4194;43.408;24.626;2023-02-01T01:30:13;2.30;99.90
8313;DHT22;4194;43.408;24.626;2023-02-01T01:32:38;4.40;99.90
8313;DHT22;4194;43.408;24.626;2023-02-01T01:35:05;2.60;99.90
8313;DHT22;4194;43.408;24.626;2023-02-01T01:37:32;1.60;99.90
8313;DHT22;4194;43.408;24.626;2023-02-01T01:39:57;2.20;99.90
8313;DHT22;4194;43.408;24.626;2023-02-01T01:42:23;2.20;99.90
8313;DHT22;4194;43.408;24.626;2023-02-01T01:45:01;3.10;99.90
8313;DHT22;4194;43.408;24.626;2023-02-01T01:47:35;1.60;99.90
8313;DHT22;4194;43.408;24.626;2023-02-01T01:50:06;2.30;99.90
8313;DHT22;4194;43.408;24.626;2023-02-01T01:54:59;2.60;99.90
8313;DHT22;4194;43.408;24.626;2023-02-01T01:57:31;2.10;99.90
8313;DHT22;4194;43.408;24.626;2023-02-01T02:00:05;2.50;99.90
8313;DHT22;4194;43.408;24.626;2023-02-01T02:02:33;2.50;99.90
8313;DHT22;4194;43.408;24.626;2023-02-01T02:04:58;2.00;99.90
8313;DHT22;4194;43.408;24.626;2023-02-01T02:07:28;2.70;99.90
8313;DHT22;4194;43.408;24.626;2023-02-01T02:09:55;1.70;99.90
8313;DHT22;4194;43.408;24.626;2023-02-01T02:12:21;1.70;99.90
8313;DHT22;4194;43.408;24.626;2023-02-01T02:28:47;2.40;99.90
8313;DHT22;4194;43.408;24.626;2023-02-01T02:34:34;1.90;99.90
8313;DHT22;4194;43.408;24.626;2023-02-01T02:43:01;2.20;99.90
8313;DHT22;4194;43.408;24.626;2023-02-01T02:45:59;1.10;99.90
8313;DHT22;4194;43.408;24.626;2023-02-01T02:49:11;1.20;99.90
8313;DHT22;4194;43.408;24.626;2023-02-01T02:54:40;1.10;99.90
8313;DHT22;4194;43.408;24.626;2023-02-01T02:57:36;1.70;99.90
8313;DHT22;4194;43.408;24.626;2023-02-01T03:00:24;2.20;99.90
8313;DHT22;4194;43.408;24.626;2023-02-01T03:05:53;2.20;99.90
8313;DHT22;4194;43.408;24.626;2023-02-01T03:08:26;1.00;99.90
8313;DHT22;4194;43.408;24.626;2023-02-01T03:19:18;1.60;99.90
8313;DHT22;4194;43.408;24.626;2023-02-01T03:24:17;2.20;99.90
8313;DHT22;4194;43.408;24.626;2023-02-01T03:26:51;1.50;99.90
8313;DHT22;4194;43.408;24.626;2023-02-01T03:34:16;1.30;99.90
8313;DHT22;4194;43.408;24.626;2023-02-01T03:36:49;1.70;99.90
8313;DHT22;4194;43.408;24.626;2023-02-01T03:42:06;1.30;99.90
8313;DHT22;4194;43.408;24.626;2023-02-01T03:44:49;1.80;99.90
8313;DHT22;4194;43.408;24.626;2023-02-01T03:47:26;1.70;99.90
8313;DHT22;4194;43.408;24.626;2023-02-01T03:52:33;1.70;99.90
8313;DHT22;4194;43.408;24.626;2023-02-01T03:55:02;1.60;99.90
8313;DHT22;4194;43.408;24.626;2023-02-01T03:57:34;1.50;99.90
8313;DHT22;4194;43.408;24.626;2023-02-01T04:00:22;1.10;99.90
8313;DHT22;4194;43.408;24.626;2023-02-01T04:02:48;0.80;99.90
8313;DHT22;4194;43.408;24.626;2023-02-01T04:05:14;1.30;99.90
8313;DHT22;4194;43.408;24.626;2023-02-01T04:07:40;2.80;99.90
8313;DHT22;4194;43.408;24.626;2023-02-01T04:10:07;2.40;99.90
8313;DHT22;4194;43.408;24.626;2023-02-01T04:12:33;1.90;99.90
8313;DHT22;4194;43.408;24.626;2023-02-01T04:14:59;2.30;99.90
8313;DHT22;4194;43.408;24.626;2023-02-01T04:17:24;2.20;99.90
8313;DHT22;4194;43.408;24.626;2023-02-01T04:19:50;2.60;99.90
8313;DHT22;4194;43.408;24.626;2023-02-01T04:22:16;1.40;99.90
8313;DHT22;4194;43.408;24.626;2023-02-01T04:24:41;1.30;99.90
8313;DHT22;4194;43.408;24.626;2023-02-01T04:27:07;2.20;99.90
8313;DHT22;4194;43.408;24.626;2023-02-01T04:29:33;1.40;99.90
8313;DHT22;4194;43.408;24.626;2023-02-01T04:31:59;3.30;99.90
8313;DHT22;4194;43.408;24.626;2023-02-01T04:34:24;2.10;99.90
8313;DHT22;4194;43.408;24.626;2023-02-01T04:36:51;0.50;99.90
8313;DHT22;4194;43.408;24.626;2023-02-01T04:44:16;2.10;99.90
8313;DHT22;4194;43.408;24.626;2023-02-01T04:46:43;2.40;99.90
8313;DHT22;4194;43.408;24.626;2023-02-01T04:49:10;2.50;99.90
8313;DHT22;4194;43.408;24.626;2023-02-01T04:51:35;1.40;99.90
8313;DHT22;4194;43.408;24.626;2023-02-01T04:54:01;2.20;99.90
8313;DHT22;4194;43.408;24.626;2023-02-01T04:56:27;1.20;99.90
8313;DHT22;4194;43.408;24.626;2023-02-01T04:58:53;1.00;99.90
8313;DHT22;4194;43.408;24.626;2023-02-01T05:01:18;2.20;99.90
8313;DHT22;4194;43.408;24.626;2023-02-01T05:08:36;2.00;99.90
8313;DHT22;4194;43.408;24.626;2023-02-01T05:13:29;2.10;99.90
8313;DHT22;4194;43.408;24.626;2023-02-01T05:16:13;1.20;99.90
8313;DHT22;4194;43.408;24.626;2023-02-01T05:18:39;2.10;99.90
8313;DHT22;4194;43.408;24.626;2023-02-01T05:23:31;2.00;99.90
8313;DHT22;4194;43.408;24.626;2023-02-01T05:26:01;0.70;99.90
8313;DHT22;4194;43.408;24.626;2023-02-01T05:28:27;2.20;99.90
8313;DHT22;4194;43.408;24.626;2023-02-01T05:30:53;1.30;99.90
8313;DHT22;4194;43.408;24.626;2023-02-01T05:33:19;0.70;99.90
8313;DHT22;4194;43.408;24.626;2023-02-01T05:35:45;1.10;99.90
8313;DHT22;4194;43.408;24.626;2023-02-01T05:38:11;2.70;99.90
8313;DHT22;4194;43.408;24.626;2023-02-01T05:40:37;1.90;99.90
8313;DHT22;4194;43.408;24.626;2023-02-01T05:43:02;2.00;99.90
8313;DHT22;4194;43.408;24.626;2023-02-01T05:45:28;1.20;99.90
8313;DHT22;4194;43.408;24.626;2023-02-01T05:47:54;2.80;99.90
8313;DHT22;4194;43.408;24.626;2023-02-01T05:50:19;1.70;99.90
8313;DHT22;4194;43.408;24.626;2023-02-01T05:52:45;2.10;99.90
8313;DHT22;4194;43.408;24.626;2023-02-01T05:55:11;2.60;99.90
8313;DHT22;4194;43.408;24.626;2023-02-01T05:57:36;1.60;99.90
8313;DHT22;4194;43.408;24.626;2023-02-01T06:00:03;1.20;99.90
8313;DHT22;4194;43.408;24.626;2023-02-01T06:02:29;1.90;99.90
8313;DHT22;4194;43.408;24.626;2023-02-01T06:04:54;1.50;99.90
8313;DHT22;4194;43.408;24.626;2023-02-01T06:07:20;0.30;99.90
8313;DHT22;4194;43.408;24.626;2023-02-01T06:09:46;0.70;99.90
8313;DHT22;4194;43.408;24.626;2023-02-01T06:12:11;1.80;99.90
8313;DHT22;4194;43.408;24.626;2023-02-01T06:14:37;2.30;99.90
8313;DHT22;4194;43.408;24.626;2023-02-01T06:17:03;0.90;99.90
8313;DHT22;4194;43.408;24.626;2023-02-01T06:19:30;1.10;99.90
8313;DHT22;4194;43.408;24.626;2023-02-01T06:24:22;1.90;99.90
8313;DHT22;4194;43.408;24.626;2023-02-01T06:26:48;2.20;99.90
8313;DHT22;4194;43.408;24.626;2023-02-01T06:29:13;1.20;99.90
8313;DHT22;4194;43.408;24.626;2023-02-01T06:31:39;0.90;99.90
8313;DHT22;4194;43.408;24.626;2023-02-01T06:34:05;1.80;99.90
8313;DHT22;4194;43.408;24.626;2023-02-01T06:36:31;1.70;99.90
8313;DHT22;4194;43.408;24.626;2023-02-01T06:38:57;0.50;99.90
8313;DHT22;4194;43.408;24.626;2023-02-01T06:41:24;2.30;99.90
8313;DHT22;4194;43.408;24.626;2023-02-01T06:43:51;3.30;99.90
8313;DHT22;4194;43.408;24.626;2023-02-01T06:46:17;2.00;99.90
8313;DHT22;4194;43.408;24.626;2023-02-01T06:48:43;1.30;99.90
8313;DHT22;4194;43.408;24.626;2023-02-01T06:51:23;1.90;99.90
8313;DHT22;4194;43.408;24.626;2023-02-01T06:56:15;2.80;99.90
8313;DHT22;4194;43.408;24.626;2023-02-01T06:58:40;2.80;99.90
8313;DHT22;4194;43.408;24.626;2023-02-01T07:01:08;1.80;99.90
8313;DHT22;4194;43.408;24.626;2023-02-01T07:03:34;2.20;99.90
8313;DHT22;4194;43.408;24.626;2023-02-01T07:05:59;2.30;99.90
8313;DHT22;4194;43.408;24.626;2023-02-01T07:10:55;3.40;99.90
8313;DHT22;4194;43.408;24.626;2023-02-01T07:15:47;2.00;99.90
8313;DHT22;4194;43.408;24.626;2023-02-01T07:18:13;2.70;99.90
8313;DHT22;4194;43.408;24.626;2023-02-01T07:20:40;4.20;99.90
8313;DHT22;4194;43.408;24.626;2023-02-01T07:25:32;2.50;99.90
8313;DHT22;4194;43.408;24.626;2023-02-01T07:30:29;4.20;99.90
8313;DHT22;4194;43.408;24.626;2023-02-01T07:32:55;3.20;99.90
8313;DHT22;4194;43.408;24.626;2023-02-01T07:35:24;4.30;99.90
8313;DHT22;4194;43.408;24.626;2023-02-01T07:37:50;3.80;99.90
8313;DHT22;4194;43.408;24.626;2023-02-01T07:40:16;5.00;99.90
8313;DHT22;4194;43.408;24.626;2023-02-01T07:42:41;3.20;99.90
8313;DHT22;4194;43.408;24.626;2023-02-01T07:45:07;4.00;99.90
8313;DHT22;4194;43.408;24.626;2023-02-01T07:47:33;5.20;99.90
8313;DHT22;4194;43.408;24.626;2023-02-01T07:49:58;5.50;99.90
8313;DHT22;4194;43.408;24.626;2023-02-01T07:52:27;4.90;99.90
8313;DHT22;4194;43.408;24.626;2023-02-01T07:54:52;4.50;99.90
8313;DHT22;4194;43.408;24.626;2023-02-01T07:57:19;5.50;99.90
8313;DHT22;4194;43.408;24.626;2023-02-01T07:59:44;6.20;99.90
8313;DHT22;4194;43.408;24.626;2023-02-01T08:02:28;5.10;99.90
8313;DHT22;4194;43.408;24.626;2023-02-01T08:04:54;6.70;99.90
8313;DHT22;4194;43.408;24.626;2023-02-01T08:07:20;4.20;99.90
8313;DHT22;4194;43.408;24.626;2023-02-01T08:09:45;5.20;99.90
8313;DHT22;4194;43.408;24.626;2023-02-01T08:12:11;4.80;99.90
8313;DHT22;4194;43.408;24.626;2023-02-01T08:14:37;5.20;99.90
8313;DHT22;4194;43.408;24.626;2023-02-01T08:17:02;5.50;99.90
8313;DHT22;4194;43.408;24.626;2023-02-01T08:19:28;5.60;98.90
8313;DHT22;4194;43.408;24.626;2023-02-01T08:21:54;6.30;98.40
8313;DHT22;4194;43.408;24.626;2023-02-01T08:24:19;6.90;97.00
8313;DHT22;4194;43.408;24.626;2023-02-01T08:26:50;5.20;96.10
8313;DHT22;4194;43.408;24.626;2023-02-01T08:31:42;5.50;97.10
8313;DHT22;4194;43.408;24.626;2023-02-01T08:36:35;5.90;97.50
8313;DHT22;4194;43.408;24.626;2023-02-01T08:39:01;5.60;97.40
8313;DHT22;4194;43.408;24.626;2023-02-01T08:41:29;5.60;97.80
8313;DHT22;4194;43.408;24.626;2023-02-01T08:43:56;6.70;98.40
8313;DHT22;4194;43.408;24.626;2023-02-01T08:46:22;6.10;98.80
8313;DHT22;4194;43.408;24.626;2023-02-01T08:48:48;5.00;97.20
8313;DHT22;4194;43.408;24.626;2023-02-01T08:51:16;6.70;98.50
8313;DHT22;4194;43.408;24.626;2023-02-01T08:53:42;5.20;97.70
8313;DHT22;4194;43.408;24.626;2023-02-01T08:56:10;5.40;98.00
8313;DHT22;4194;43.408;24.626;2023-02-01T08:58:35;5.80;97.50
8313;DHT22;4194;43.408;24.626;2023-02-01T09:01:05;4.70;96.30
8313;DHT22;4194;43.408;24.626;2023-02-01T09:03:31;6.70;96.70
8313;DHT22;4194;43.408;24.626;2023-02-01T09:06:08;5.20;95.80
8313;DHT22;4194;43.408;24.626;2023-02-01T09:08:34;6.60;95.70
8313;DHT22;4194;43.408;24.626;2023-02-01T09:11:01;6.60;96.00
8313;DHT22;4194;43.408;24.626;2023-02-01T09:13:28;6.00;96.30
8313;DHT22;4194;43.408;24.626;2023-02-01T09:18:20;6.60;96.70
8313;DHT22;4194;43.408;24.626;2023-02-01T09:20:46;5.90;96.30
8313;DHT22;4194;43.408;24.626;2023-02-01T09:23:11;6.80;95.30
8313;DHT22;4194;43.408;24.626;2023-02-01T09:25:38;6.90;94.40
8313;DHT22;4194;43.408;24.626;2023-02-01T09:28:04;5.90;93.50
8313;DHT22;4194;43.408;24.626;2023-02-01T09:30:32;6.80;93.20
8313;DHT22;4194;43.408;24.626;2023-02-01T09:35:25;7.00;92.30
8313;DHT22;4194;43.408;24.626;2023-02-01T09:37:52;7.00;92.00
8313;DHT22;4194;43.408;24.626;2023-02-01T09:40:18;7.10;92.40
8313;DHT22;4194;43.408;24.626;2023-02-01T09:48:27;8.30;91.20
8313;DHT22;4194;43.408;24.626;2023-02-01T09:50:56;7.10;90.60
8313;DHT22;4194;43.408;24.626;2023-02-01T09:53:36;9.50;91.10
8313;DHT22;4194;43.408;24.626;2023-02-01T09:56:17;8.50;89.20
8313;DHT22;4194;43.408;24.626;2023-02-01T10:03:39;7.80;85.20
8313;DHT22;4194;43.408;24.626;2023-02-01T10:22:09;9.80;77.50
8313;DHT22;4194;43.408;24.626;2023-02-01T10:27:36;9.70;74.40
8313;DHT22;4194;43.408;24.626;2023-02-01T10:32:39;10.40;74.00
8313;DHT22;4194;43.408;24.626;2023-02-01T10:37:41;12.10;75.20
8313;DHT22;4194;43.408;24.626;2023-02-01T10:40:21;12.30;75.40
8313;DHT22;4194;43.408;24.626;2023-02-01T10:42:56;10.60;71.20
8313;DHT22;4194;43.408;24.626;2023-02-01T10:45:26;12.10;70.00
8313;DHT22;4194;43.408;24.626;2023-02-01T10:47:53;11.20;70.60
8313;DHT22;4194;43.408;24.626;2023-02-01T10:50:53;11.10;69.90
8313;DHT22;4194;43.408;24.626;2023-02-01T10:53:53;10.80;70.00
8313;DHT22;4194;43.408;24.626;2023-02-01T10:56:26;10.80;70.00
8313;DHT22;4194;43.408;24.626;2023-02-01T10:59:00;11.50;70.00
8313;DHT22;4194;43.408;24.626;2023-02-01T11:06:39;12.50;70.30
8313;DHT22;4194;43.408;24.626;2023-02-01T11:11:59;10.70;70.10
8313;DHT22;4194;43.408;24.626;2023-02-01T11:17:27;12.10;70.90
8313;DHT22;4194;43.408;24.626;2023-02-01T11:19:46;12.40;70.70
8313;DHT22;4194;43.408;24.626;2023-02-01T11:22:13;10.70;69.10
8313;DHT22;4194;43.408;24.626;2023-02-01T11:24:39;12.50;70.20
8313;DHT22;4194;43.408;24.626;2023-02-01T11:27:14;11.90;69.10
8313;DHT22;4194;43.408;24.626;2023-02-01T11:29:46;10.20;70.40
8313;DHT22;4194;43.408;24.626;2023-02-01T11:32:13;11.10;71.70
8313;DHT22;4194;43.408;24.626;2023-02-01T11:34:51;10.30;71.90
8313;DHT22;4194;43.408;24.626;2023-02-01T11:37:19;10.80;72.50
8313;DHT22;4194;43.408;24.626;2023-02-01T11:39:54;10.00;72.60
8313;DHT22;4194;43.408;24.626;2023-02-01T11:42:20;9.60;71.10
8313;DHT22;4194;43.408;24.626;2023-02-01T11:44:47;12.20;73.70
8313;DHT22;4194;43.408;24.626;2023-02-01T11:50:02;12.20;69.20
8313;DHT22;4194;43.408;24.626;2023-02-01T12:01:30;10.30;70.00
8313;DHT22;4194;43.408;24.626;2023-02-01T12:06:58;9.60;73.80
8313;DHT22;4194;43.408;24.626;2023-02-01T12:09:36;9.70;74.40
8313;DHT22;4194;43.408;24.626;2023-02-01T12:28:39;11.00;68.10
8313;DHT22;4194;43.408;24.626;2023-02-01T12:37:04;12.50;70.00
8313;DHT22;4194;43.408;24.626;2023-02-01T12:42:13;14.00;63.10
8313;DHT22;4194;43.408;24.626;2023-02-01T12:52:55;13.00;61.00
8313;DHT22;4194;43.408;24.626;2023-02-01T12:55:42;12.80;60.20
8313;DHT22;4194;43.408;24.626;2023-02-01T13:04:00;13.90;64.20
8313;DHT22;4194;43.408;24.626;2023-02-01T13:06:40;12.60;64.40
8313;DHT22;4194;43.408;24.626;2023-02-01T13:09:27;10.10;65.30
8313;DHT22;4194;43.408;24.626;2023-02-01T13:12:04;9.10;67.90
8313;DHT22;4194;43.408;24.626;2023-02-01T13:14:47;9.50;69.90
8313;DHT22;4194;43.408;24.626;2023-02-01T13:22:51;9.00;72.00
8313;DHT22;4194;43.408;24.626;2023-02-01T13:25:26;9.60;73.60
8313;DHT22;4194;43.408;24.626;2023-02-01T13:27:56;8.20;73.10
8313;DHT22;4194;43.408;24.626;2023-02-01T13:36:45;8.90;75.00
8313;DHT22;4194;43.408;24.626;2023-02-01T13:41:52;8.50;74.10
8313;DHT22;4194;43.408;24.626;2023-02-01T13:44:51;8.40;74.20
8313;DHT22;4194;43.408;24.626;2023-02-01T13:47:33;9.10;74.20
8313;DHT22;4194;43.408;24.626;2023-02-01T13:50:09;8.60;72.40
8313;DHT22;4194;43.408;24.626;2023-02-01T13:52:40;8.40;71.90
8313;DHT22;4194;43.408;24.626;2023-02-01T13:55:23;10.00;71.10
8313;DHT22;4194;43.408;24.626;2023-02-01T13:57:59;8.30;71.00
8313;DHT22;4194;43.408;24.626;2023-02-01T14:00:31;9.10;70.40
8313;DHT22;4194;43.408;24.626;2023-02-01T14:13:32;9.10;70.60
8313;DHT22;4194;43.408;24.626;2023-02-01T14:26:42;9.80;71.90
8313;DHT22;4194;43.408;24.626;2023-02-01T14:32:02;8.50;72.40
8313;DHT22;4194;43.408;24.626;2023-02-01T14:44:53;8.20;72.30
8313;DHT22;4194;43.408;24.626;2023-02-01T14:50:02;8.10;73.10
8313;DHT22;4194;43.408;24.626;2023-02-01T14:55:15;8.70;74.10
8313;DHT22;4194;43.408;24.626;2023-02-01T14:57:43;7.60;72.70
8313;DHT22;4194;43.408;24.626;2023-02-01T15:00:37;7.80;73.40
8313;DHT22;4194;43.408;24.626;2023-02-01T15:06:43;7.60;74.70
8313;DHT22;4194;43.408;24.626;2023-02-01T15:09:11;7.60;75.20
8313;DHT22;4194;43.408;24.626;2023-02-01T15:14:23;7.80;76.10
8313;DHT22;4194;43.408;24.626;2023-02-01T15:16:48;7.40;76.40
8313;DHT22;4194;43.408;24.626;2023-02-01T15:19:26;7.10;76.60
8313;DHT22;4194;43.408;24.626;2023-02-01T15:24:27;7.10;78.20
8313;DHT22;4194;43.408;24.626;2023-02-01T15:26:54;7.10;78.50
8313;DHT22;4194;43.408;24.626;2023-02-01T15:29:22;8.10;79.90
8313;DHT22;4194;43.408;24.626;2023-02-01T15:31:51;6.10;78.80
8313;DHT22;4194;43.408;24.626;2023-02-01T15:34:18;7.50;80.60
8313;DHT22;4194;43.408;24.626;2023-02-01T15:36:45;6.90;80.70
8313;DHT22;4194;43.408;24.626;2023-02-01T15:42:09;6.70;81.00
8313;DHT22;4194;43.408;24.626;2023-02-01T15:44:45;6.50;81.00
8313;DHT22;4194;43.408;24.626;2023-02-01T15:47:23;6.70;81.60
8313;DHT22;4194;43.408;24.626;2023-02-01T15:49:55;6.80;81.60
8313;DHT22;4194;43.408;24.626;2023-02-01T15:52:25;6.70;81.30
8313;DHT22;4194;43.408;24.626;2023-02-01T15:54:55;6.40;81.20
8313;DHT22;4194;43.408;24.626;2023-02-01T15:57:26;6.10;80.90
8313;DHT22;4194;43.408;24.626;2023-02-01T16:00:18;7.00;82.00
8313;DHT22;4194;43.408;24.626;2023-02-01T16:02:57;7.00;81.40
8313;DHT22;4194;43.408;24.626;2023-02-01T16:05:33;6.20;80.40
8313;DHT22;4194;43.408;24.626;2023-02-01T16:08:12;6.20;80.80
8313;DHT22;4194;43.408;24.626;2023-02-01T16:10:43;6.40;80.50
8313;DHT22;4194;43.408;24.626;2023-02-01T16:13:09;5.80;80.20
8313;DHT22;4194;43.408;24.626;2023-02-01T16:15:36;7.00;81.70
8313;DHT22;4194;43.408;24.626;2023-02-01T16:18:02;6.20;80.90
8313;DHT22;4194;43.408;24.626;2023-02-01T16:20:28;6.50;81.20
8313;DHT22;4194;43.408;24.626;2023-02-01T16:22:55;6.30;81.20
8313;DHT22;4194;43.408;24.626;2023-02-01T16:25:20;6.50;81.20
8313;DHT22;4194;43.408;24.626;2023-02-01T16:27:46;6.60;81.10
8313;DHT22;4194;43.408;24.626;2023-02-01T16:30:12;6.20;80.90
8313;DHT22;4194;43.408;24.626;2023-02-01T16:32:38;6.90;81.40
8313;DHT22;4194;43.408;24.626;2023-02-01T16:35:15;6.80;81.60
8313;DHT22;4194;43.408;24.626;2023-02-01T16:37:44;6.10;80.60
8313;DHT22;4194;43.408;24.626;2023-02-01T16:40:18;6.10;80.90
8313;DHT22;4194;43.408;24.626;2023-02-01T16:42:46;5.80;80.10
8313;DHT22;4194;43.408;24.626;2023-02-01T16:45:13;6.50;80.60
8313;DHT22;4194;43.408;24.626;2023-02-01T16:47:42;6.10;80.70
8313;DHT22;4194;43.408;24.626;2023-02-01T16:50:17;7.60;80.90
8313;DHT22;4194;43.408;24.626;2023-02-01T16:52:43;6.00;80.00
8313;DHT22;4194;43.408;24.626;2023-02-01T16:55:13;6.10;79.30
8313;DHT22;4194;43.408;24.626;2023-02-01T17:00:06;7.60;79.60
8313;DHT22;4194;43.408;24.626;2023-02-01T17:02:34;6.20;78.40
8313;DHT22;4194;43.408;24.626;2023-02-01T17:04:59;7.70;78.00
8313;DHT22;4194;43.408;24.626;2023-02-01T17:07:26;6.30;77.60
8313;DHT22;4194;43.408;24.626;2023-02-01T17:09:52;7.40;78.50
8313;DHT22;4194;43.408;24.626;2023-02-01T17:12:30;6.10;77.80
8313;DHT22;4194;43.408;24.626;2023-02-01T17:14:58;7.60;78.70
8313;DHT22;4194;43.408;24.626;2023-02-01T17:17:35;6.90;78.50
8313;DHT22;4194;43.408;24.626;2023-02-01T17:20:01;7.90;78.90
8313;DHT22;4194;43.408;24.626;2023-02-01T17:22:28;5.20;76.40
8313;DHT22;4194;43.408;24.626;2023-02-01T17:24:54;7.70;79.10
8313;DHT22;4194;43.408;24.626;2023-02-01T17:27:19;7.70;79.60
8313;DHT22;4194;43.408;24.626;2023-02-01T17:29:45;5.70;78.20
8313;DHT22;4194;43.408;24.626;2023-02-01T17:32:18;6.40;79.80
8313;DHT22;4194;43.408;24.626;2023-02-01T17:34:44;5.10;78.50
8313;DHT22;4194;43.408;24.626;2023-02-01T17:37:27;6.00;80.40
8313;DHT22;4194;43.408;24.626;2023-02-01T17:39:53;6.30;80.80
8313;DHT22;4194;43.408;24.626;2023-02-01T17:42:19;6.30;81.10
8313;DHT22;4194;43.408;24.626;2023-02-01T17:44:46;5.90;80.60
8313;DHT22;4194;43.408;24.626;2023-02-01T17:47:12;5.60;81.20
8313;DHT22;4194;43.408;24.626;2023-02-01T17:49:37;5.80;81.90
8313;DHT22;4194;43.408;24.626;2023-02-01T17:52:04;6.30;82.60
8313;DHT22;4194;43.408;24.626;2023-02-01T17:54:30;6.30;83.70
8313;DHT22;4194;43.408;24.626;2023-02-01T17:56:56;5.90;83.50
8313;DHT22;4194;43.408;24.626;2023-02-01T17:59:25;6.70;84.40
8313;DHT22;4194;43.408;24.626;2023-02-01T18:04:18;6.60;84.70
8313;DHT22;4194;43.408;24.626;2023-02-01T18:06:46;5.40;83.60
8313;DHT22;4194;43.408;24.626;2023-02-01T18:11:38;5.20;83.40
8313;DHT22;4194;43.408;24.626;2023-02-01T18:19:00;6.80;84.00
8313;DHT22;4194;43.408;24.626;2023-02-01T18:21:32;6.20;83.90
8313;DHT22;4194;43.408;24.626;2023-02-01T18:23:59;6.40;83.60
8313;DHT22;4194;43.408;24.626;2023-02-01T18:26:25;6.20;83.50
8313;DHT22;4194;43.408;24.626;2023-02-01T18:28:51;5.20;82.40
8313;DHT22;4194;43.408;24.626;2023-02-01T18:33:47;5.00;82.60
8313;DHT22;4194;43.408;24.626;2023-02-01T18:36:14;6.00;83.80
8313;DHT22;4194;43.408;24.626;2023-02-01T18:38:41;6.10;84.30
8313;DHT22;4194;43.408;24.626;2023-02-01T18:41:17;7.10;85.10
8313;DHT22;4194;43.408;24.626;2023-02-01T18:43:48;7.00;85.50
8313;DHT22;4194;43.408;24.626;2023-02-01T18:46:14;6.40;85.40
8313;DHT22;4194;43.408;24.626;2023-02-01T18:48:41;5.00;84.40
8313;DHT22;4194;43.408;24.626;2023-02-01T18:51:12;5.90;85.80
8313;DHT22;4194;43.408;24.626;2023-02-01T18:53:38;5.80;85.90
8313;DHT22;4194;43.408;24.626;2023-02-01T18:56:05;6.40;86.20
8313;DHT22;4194;43.408;24.626;2023-02-01T18:58:31;6.00;86.20
8313;DHT22;4194;43.408;24.626;2023-02-01T19:01:03;5.10;84.90
8313;DHT22;4194;43.408;24.626;2023-02-01T19:03:30;6.60;86.00
8313;DHT22;4194;43.408;24.626;2023-02-01T19:05:56;6.90;86.60
8313;DHT22;4194;43.408;24.626;2023-02-01T19:08:22;6.70;86.30
8313;DHT22;4194;43.408;24.626;2023-02-01T19:10:52;6.10;85.50
8313;DHT22;4194;43.408;24.626;2023-02-01T19:13:18;6.30;85.90
8313;DHT22;4194;43.408;24.626;2023-02-01T19:15:48;5.80;85.90
8313;DHT22;4194;43.408;24.626;2023-02-01T19:18:13;4.70;84.80
8313;DHT22;4194;43.408;24.626;2023-02-01T19:20:45;6.80;86.80
8313;DHT22;4194;43.408;24.626;2023-02-01T19:23:15;7.20;87.10
8313;DHT22;4194;43.408;24.626;2023-02-01T19:25:45;6.80;87.00
8313;DHT22;4194;43.408;24.626;2023-02-01T19:28:11;6.00;86.90
8313;DHT22;4194;43.408;24.626;2023-02-01T19:30:38;6.90;87.30
8313;DHT22;4194;43.408;24.626;2023-02-01T19:35:30;5.40;86.30
8313;DHT22;4194;43.408;24.626;2023-02-01T19:40:22;5.50;86.90
8313;DHT22;4194;43.408;24.626;2023-02-01T19:45:17;5.80;87.40
8313;DHT22;4194;43.408;24.626;2023-02-01T19:47:43;5.50;87.10
8313;DHT22;4194;43.408;24.626;2023-02-01T19:52:40;5.70;86.90
8313;DHT22;4194;43.408;24.626;2023-02-01T19:55:06;5.70;86.70
8313;DHT22;4194;43.408;24.626;2023-02-01T19:57:32;5.40;86.50
8313;DHT22;4194;43.408;24.626;2023-02-01T19:59:57;6.60;87.10
8313;DHT22;4194;43.408;24.626;2023-02-01T20:02:23;6.10;86.30
8313;DHT22;4194;43.408;24.626;2023-02-01T20:04:50;6.70;86.70
8313;DHT22;4194;43.408;24.626;2023-02-01T20:07:16;6.10;86.10
8313;DHT22;4194;43.408;24.626;2023-02-01T20:09:42;5.80;85.50
8313;DHT22;4194;43.408;24.626;2023-02-01T20:12:09;7.00;86.40
8313;DHT22;4194;43.408;24.626;2023-02-01T20:14:37;6.30;85.40
8313;DHT22;4194;43.408;24.626;2023-02-01T20:17:03;7.00;85.70
8313;DHT22;4194;43.408;24.626;2023-02-01T20:19:30;6.80;85.00
8313;DHT22;4194;43.408;24.626;2023-02-01T20:24:22;7.00;84.20
8313;DHT22;4194;43.408;24.626;2023-02-01T20:26:48;6.20;82.40
8313;DHT22;4194;43.408;24.626;2023-02-01T20:29:14;6.30;82.20
8313;DHT22;4194;43.408;24.626;2023-02-01T20:31:42;6.10;81.80
8313;DHT22;4194;43.408;24.626;2023-02-01T20:34:09;5.90;81.40
8313;DHT22;4194;43.408;24.626;2023-02-01T20:36:35;6.40;81.50
8313;DHT22;4194;43.408;24.626;2023-02-01T20:43:54;6.90;81.00
8313;DHT22;4194;43.408;24.626;2023-02-01T20:46:19;5.30;79.50
8313;DHT22;4194;43.408;24.626;2023-02-01T20:48:47;5.30;79.30
8313;DHT22;4194;43.408;24.626;2023-02-01T20:51:15;5.40;79.70
8313;DHT22;4194;43.408;24.626;2023-02-01T20:53:42;6.70;80.50
8313;DHT22;4194;43.408;24.626;2023-02-01T20:56:10;5.70;79.60
8313;DHT22;4194;43.408;24.626;2023-02-01T20:58:37;7.30;81.00
8313;DHT22;4194;43.408;24.626;2023-02-01T21:01:03;6.10;80.50
8313;DHT22;4194;43.408;24.626;2023-02-01T21:03:29;6.90;80.80
8313;DHT22;4194;43.408;24.626;2023-02-01T21:05:57;5.90;80.20
8313;DHT22;4194;43.408;24.626;2023-02-01T21:08:24;5.70;79.20
8313;DHT22;4194;43.408;24.626;2023-02-01T21:11:06;6.30;79.70
8313;DHT22;4194;43.408;24.626;2023-02-01T21:13:34;6.20;80.40
8313;DHT22;4194;43.408;24.626;2023-02-01T21:21:05;6.90;81.10
8313;DHT22;4194;43.408;24.626;2023-02-01T21:23:31;5.90;80.00
8313;DHT22;4194;43.408;24.626;2023-02-01T21:26:00;6.90;80.80
8313;DHT22;4194;43.408;24.626;2023-02-01T21:28:25;6.90;80.80